Time,TemperatureF,DewpointF,PressureIn,WindDirection,WindDirectionDegrees,WindSpeedMPH,WindSpeedGustMPH,Humidity,HourlyPrecipIn,Conditions,Clouds,dailyrainin,SoftwareType,DateUTC
2013-02-19 00:00:00,29.2,15.5,30.24,SSW,213,0.0,4.0,56,0.00,,CLR,0.00,VWS V14.00,2013-02-19 05:00:00,
2013-02-19 00:01:00,29.2,15.5,30.24,SSW,213,0.0,4.0,56,0.00,,CLR,0.00,VWS V14.00,2013-02-19 05:01:00,
2013-02-19 00:02:00,29.1,15.4,30.25,SSW,203,1.0,1.0,56,0.00,,CLR,0.00,VWS V14.00,2013-02-19 05:02:00,
2013-02-19 00:07:00,28.9,15.6,30.24,SSW,203,0.0,1.0,57,0.00,,CLR,0.00,VWS V14.00,2013-02-19 05:07:00,
2013-02-19 00:13:00,28.8,15.5,30.25,SSW,207,1.0,2.0,57,0.00,,CLR,0.00,VWS V14.00,2013-02-19 05:13:00,
2013-02-19 00:18:00,28.8,15.9,30.24,SW,217,0.0,2.0,58,0.00,,CLR,0.00,VWS V14.00,2013-02-19 05:18:00,
2013-02-19 00:23:00,28.7,15.4,30.24,SSW,200,0.0,2.0,57,0.00,,CLR,0.00,VWS V14.00,2013-02-19 05:23:00,
2013-02-19 00:28:00,28.6,15.7,30.24,SSW,200,0.0,2.0,58,0.00,,CLR,0.00,VWS V14.00,2013-02-19 05:28:00,
2013-02-19 00:30:00,26.7,15.1,30.22,SSW,197,0.0,0.0,61,0.00,,CLR,0.00,VWS V14.00,2013-02-19 05:30:00,
2013-02-19 00:33:00,28.6,15.7,30.24,SSW,195,1.0,1.0,58,0.00,,CLR,0.00,VWS V14.00,2013-02-19 05:33:00,
2013-02-19 00:38:00,28.5,15.6,30.23,South,190,1.0,2.0,58,0.00,,CLR,0.00,VWS V14.00,2013-02-19 05:38:00,
2013-02-19 00:43:00,28.6,16.1,30.23,SSW,197,1.0,2.0,59,0.00,,CLR,0.00,VWS V14.00,2013-02-19 05:43:00,
2013-02-19 00:48:00,28.5,16.0,30.23,SSW,197,0.0,2.0,59,0.00,,CLR,0.00,VWS V14.00,2013-02-19 05:48:00,
2013-02-19 00:53:00,28.3,16.2,30.23,SSW,197,0.0,2.0,60,0.00,,CLR,0.00,VWS V14.00,2013-02-19 05:53:00,
2013-02-19 00:58:00,28.1,15.6,30.23,SSW,197,0.0,2.0,59,0.00,,CLR,0.00,VWS V14.00,2013-02-19 05:58:00,
2013-02-19 01:00:00,25.0,14.6,30.20,SSW,197,0.0,0.0,64,0.00,,CLR,0.00,VWS V14.00,2013-02-19 06:00:00,
2013-02-19 01:03:00,28.0,15.9,30.23,SSW,197,0.0,0.0,60,0.00,,CLR,0.00,VWS V14.00,2013-02-19 06:03:00,
2013-02-19 01:08:00,27.7,16.0,30.23,SSW,197,0.0,0.0,61,0.00,,CLR,0.00,VWS V14.00,2013-02-19 06:08:00,
2013-02-19 01:13:00,27.4,15.7,30.23,SSW,197,0.0,0.0,61,0.00,,CLR,0.00,VWS V14.00,2013-02-19 06:13:00,
2013-02-19 01:18:00,27.2,15.9,30.22,SSW,197,0.0,0.0,62,0.00,,CLR,0.00,VWS V14.00,2013-02-19 06:18:00,
2013-02-19 01:24:00,27.1,15.8,30.22,SSW,197,0.0,0.0,62,0.00,,CLR,0.00,VWS V14.00,2013-02-19 06:24:00,
2013-02-19 01:29:00,26.8,15.2,30.22,SSW,197,0.0,0.0,61,0.00,,CLR,0.00,VWS V14.00,2013-02-19 06:29:00,
2013-02-19 01:30:00,26.7,15.1,30.22,SSW,197,0.0,0.0,61,0.00,,CLR,0.00,VWS V14.00,2013-02-19 06:30:00,
2013-02-19 01:34:00,26.5,15.3,30.22,SSW,197,0.0,0.0,62,0.00,,CLR,0.00,VWS V14.00,2013-02-19 06:34:00,
2013-02-19 01:39:00,26.1,14.5,30.22,SSW,197,0.0,0.0,61,0.00,,CLR,0.00,VWS V14.00,2013-02-19 06:39:00,
2013-02-19 01:44:00,25.8,14.6,30.21,SSW,197,0.0,0.0,62,0.00,,CLR,0.00,VWS V14.00,2013-02-19 06:44:00,
2013-02-19 01:49:00,25.5,14.3,30.21,SSW,199,0.0,0.0,62,0.00,,CLR,0.00,VWS V14.00,2013-02-19 06:49:00,
2013-02-19 01:54:00,25.0,14.2,30.21,SSW,198,0.0,0.0,63,0.00,,CLR,0.00,VWS V14.00,2013-02-19 06:54:00,
2013-02-19 01:59:00,25.0,14.6,30.20,SSW,197,0.0,0.0,64,0.00,,CLR,0.00,VWS V14.00,2013-02-19 06:59:00,
2013-02-19 02:00:00,25.0,14.6,30.20,SSW,197,0.0,0.0,64,0.00,,CLR,0.00,VWS V14.00,2013-02-19 07:00:00,
2013-02-19 02:05:00,24.9,14.5,30.20,SSW,197,0.0,0.0,64,0.00,,CLR,0.00,VWS V14.00,2013-02-19 07:05:00,
2013-02-19 02:10:00,24.9,14.5,30.20,SSW,197,0.0,0.0,64,0.00,,CLR,0.00,VWS V14.00,2013-02-19 07:10:00,
2013-02-19 02:15:00,24.8,14.0,30.19,SSW,198,0.0,0.0,63,0.00,,CLR,0.00,VWS V14.00,2013-02-19 07:15:00,
2013-02-19 02:20:00,25.0,14.2,30.19,SSW,198,0.0,0.0,63,0.00,,CLR,0.00,VWS V14.00,2013-02-19 07:20:00,
2013-02-19 02:25:00,24.9,14.1,30.19,SSW,198,0.0,0.0,63,0.00,,CLR,0.00,VWS V14.00,2013-02-19 07:25:00,
2013-02-19 02:30:00,24.7,14.3,30.19,SSW,196,0.0,0.0,64,0.00,,CLR,0.00,VWS V14.00,2013-02-19 07:30:00,
2013-02-19 02:35:00,24.7,14.6,30.19,SSW,197,0.0,0.0,65,0.00,,CLR,0.00,VWS V14.00,2013-02-19 07:35:00,
2013-02-19 02:40:00,24.6,14.9,30.18,SSW,197,0.0,0.0,66,0.00,,CLR,0.00,VWS V14.00,2013-02-19 07:40:00,
2013-02-19 02:45:00,24.6,14.5,30.18,SSW,198,0.0,0.0,65,0.00,,CLR,0.00,VWS V14.00,2013-02-19 07:45:00,
2013-02-19 02:50:00,24.6,14.9,30.18,SSW,197,0.0,0.0,66,0.00,,CLR,0.00,VWS V14.00,2013-02-19 07:50:00,
2013-02-19 02:56:00,24.3,15.6,30.18,SSW,198,0.0,0.0,69,0.00,,CLR,0.00,VWS V14.00,2013-02-19 07:56:00,
2013-02-19 03:00:00,22.7,14.4,30.17,SSW,196,0.0,0.0,70,0.00,,CLR,0.00,VWS V14.00,2013-02-19 08:00:00,
2013-02-19 03:01:00,24.3,15.3,30.18,SSW,198,0.0,0.0,68,0.00,,CLR,0.00,VWS V14.00,2013-02-19 08:01:00,
2013-02-19 03:06:00,24.2,15.2,30.17,SSW,198,0.0,0.0,68,0.00,,CLR,0.00,VWS V14.00,2013-02-19 08:06:00,
2013-02-19 03:11:00,24.1,15.1,30.17,SSW,197,0.0,0.0,68,0.00,,CLR,0.00,VWS V14.00,2013-02-19 08:11:00,
2013-02-19 03:16:00,23.9,15.2,30.17,SSW,198,0.0,0.0,69,0.00,,CLR,0.00,VWS V14.00,2013-02-19 08:16:00,
2013-02-19 03:21:00,23.7,15.4,30.17,SSW,198,0.0,0.0,70,0.00,,CLR,0.00,VWS V14.00,2013-02-19 08:21:00,
2013-02-19 03:26:00,23.5,15.5,30.17,SSW,197,0.0,0.0,71,0.00,,CLR,0.00,VWS V14.00,2013-02-19 08:26:00,
2013-02-19 03:30:00,23.6,15.6,30.17,SSW,199,0.0,0.0,71,0.00,,CLR,0.00,VWS V14.00,2013-02-19 08:30:00,
2013-02-19 03:31:00,23.6,15.6,30.17,SSW,199,0.0,0.0,71,0.00,,CLR,0.00,VWS V14.00,2013-02-19 08:31:00,
2013-02-19 03:36:00,23.6,15.3,30.16,SSW,198,0.0,0.0,70,0.00,,CLR,0.00,VWS V14.00,2013-02-19 08:36:00,
2013-02-19 03:41:00,23.5,15.2,30.17,SSW,196,0.0,0.0,70,0.00,,CLR,0.00,VWS V14.00,2013-02-19 08:41:00,
2013-02-19 03:46:00,23.6,14.9,30.17,SSW,198,0.0,0.0,69,0.00,,CLR,0.00,VWS V14.00,2013-02-19 08:46:00,
2013-02-19 03:51:00,23.4,15.1,30.17,SSW,198,0.0,0.0,70,0.00,,CLR,0.00,VWS V14.00,2013-02-19 08:51:00,
2013-02-19 03:56:00,22.9,14.6,30.17,SSW,198,0.0,0.0,70,0.00,,CLR,0.00,VWS V14.00,2013-02-19 08:56:00,
2013-02-19 04:00:00,22.7,14.4,30.17,SSW,196,0.0,0.0,70,0.00,,CLR,0.00,VWS V14.00,2013-02-19 09:00:00,
2013-02-19 04:02:00,22.5,14.5,30.17,SSW,198,0.0,0.0,71,0.00,,CLR,0.00,VWS V14.00,2013-02-19 09:02:00,
2013-02-19 04:07:00,22.5,14.9,30.17,SSW,198,0.0,0.0,72,0.00,,CLR,0.00,VWS V14.00,2013-02-19 09:07:00,
2013-02-19 04:12:00,22.4,14.8,30.16,SSW,196,0.0,0.0,72,0.00,,CLR,0.00,VWS V14.00,2013-02-19 09:12:00,
2013-02-19 04:17:00,22.1,14.5,30.17,SSW,196,0.0,0.0,72,0.00,,CLR,0.00,VWS V14.00,2013-02-19 09:17:00,
2013-02-19 04:22:00,21.9,14.9,30.17,SSW,197,0.0,0.0,74,0.00,,CLR,0.00,VWS V14.00,2013-02-19 09:22:00,
2013-02-19 04:27:00,21.9,16.1,30.16,SSW,197,0.0,0.0,78,0.00,,CLR,0.00,VWS V14.00,2013-02-19 09:27:00,
2013-02-19 04:30:00,21.8,16.3,30.16,SSW,196,0.0,0.0,79,0.00,,CLR,0.00,VWS V14.00,2013-02-19 09:30:00,
2013-02-19 04:32:00,21.7,15.9,30.16,SSW,197,0.0,0.0,78,0.00,,CLR,0.00,VWS V14.00,2013-02-19 09:32:00,
2013-02-19 04:37:00,21.5,15.4,30.15,SSW,197,0.0,0.0,77,0.00,,CLR,0.00,VWS V14.00,2013-02-19 09:37:00,
2013-02-19 04:42:00,21.5,15.7,30.15,SSW,197,0.0,0.0,78,0.00,,CLR,0.00,VWS V14.00,2013-02-19 09:42:00,
2013-02-19 04:47:00,21.7,15.9,30.15,SSW,197,0.0,0.0,78,0.00,,CLR,0.00,VWS V14.00,2013-02-19 09:47:00,
2013-02-19 04:52:00,21.6,15.8,30.14,SSW,197,0.0,0.0,78,0.00,,CLR,0.00,VWS V14.00,2013-02-19 09:52:00,
2013-02-19 04:57:00,21.3,15.5,30.14,SSW,197,0.0,0.0,78,0.00,,CLR,0.00,VWS V14.00,2013-02-19 09:57:00,
2013-02-19 05:00:00,21.2,15.7,30.14,SSW,197,0.0,0.0,79,0.00,,CLR,0.00,VWS V14.00,2013-02-19 10:00:00,
2013-02-19 05:02:00,21.1,15.6,30.13,SSW,197,0.0,0.0,79,0.00,,CLR,0.00,VWS V14.00,2013-02-19 10:02:00,
2013-02-19 05:07:00,21.0,15.5,30.13,SSW,197,0.0,0.0,79,0.00,,CLR,0.00,VWS V14.00,2013-02-19 10:07:00,
2013-02-19 05:13:00,20.7,15.5,30.13,SSW,197,0.0,0.0,80,0.00,,CLR,0.00,VWS V14.00,2013-02-19 10:13:00,
2013-02-19 05:18:00,20.8,15.9,30.13,SSW,197,0.0,0.0,81,0.00,,CLR,0.00,VWS V14.00,2013-02-19 10:18:00,
2013-02-19 05:23:00,20.7,16.1,30.13,SSW,197,0.0,0.0,82,0.00,,CLR,0.00,VWS V14.00,2013-02-19 10:23:00,
2013-02-19 05:28:00,20.6,16.3,30.13,SSW,197,0.0,0.0,83,0.00,,CLR,0.00,VWS V14.00,2013-02-19 10:28:00,
2013-02-19 05:30:00,20.7,16.4,30.13,SSW,197,0.0,0.0,83,0.00,,CLR,0.00,VWS V14.00,2013-02-19 10:30:00,
2013-02-19 05:33:00,20.8,16.5,30.13,SSW,197,0.0,0.0,83,0.00,,CLR,0.00,VWS V14.00,2013-02-19 10:33:00,
2013-02-19 05:38:00,20.6,16.3,30.13,SSW,197,0.0,0.0,83,0.00,,CLR,0.00,VWS V14.00,2013-02-19 10:38:00,
2013-02-19 05:43:00,20.5,16.2,30.13,SSW,196,0.0,0.0,83,0.00,,CLR,0.00,VWS V14.00,2013-02-19 10:43:00,
2013-02-19 05:48:00,20.4,16.1,30.13,SSW,197,0.0,1.0,83,0.00,,CLR,0.00,VWS V14.00,2013-02-19 10:48:00,
2013-02-19 05:53:00,20.6,16.0,30.12,SSW,197,0.0,1.0,82,0.00,,CLR,0.00,VWS V14.00,2013-02-19 10:53:00,
2013-02-19 05:58:00,20.7,16.1,30.12,SSW,197,0.0,1.0,82,0.00,,CLR,0.00,VWS V14.00,2013-02-19 10:58:00,
2013-02-19 06:00:00,20.7,16.1,30.12,SSW,197,0.0,1.0,82,0.00,,CLR,0.00,VWS V14.00,2013-02-19 11:00:00,
2013-02-19 06:03:00,20.7,16.1,30.11,SSW,197,0.0,0.0,82,0.00,,CLR,0.00,VWS V14.00,2013-02-19 11:03:00,
2013-02-19 06:09:00,20.8,16.2,30.11,SSW,196,0.0,0.0,82,0.00,,CLR,0.00,VWS V14.00,2013-02-19 11:09:00,
2013-02-19 06:14:00,20.7,16.1,30.11,SSW,197,0.0,0.0,82,0.00,,CLR,0.00,VWS V14.00,2013-02-19 11:14:00,
2013-02-19 06:19:00,20.6,16.0,30.11,SSW,196,0.0,0.0,82,0.00,,CLR,0.00,VWS V14.00,2013-02-19 11:19:00,
2013-02-19 06:24:00,20.7,16.1,30.10,SSW,196,0.0,0.0,82,0.00,,CLR,0.00,VWS V14.00,2013-02-19 11:24:00,
2013-02-19 06:29:00,20.6,15.7,30.10,SSW,197,0.0,0.0,81,0.00,,CLR,0.00,VWS V14.00,2013-02-19 11:29:00,
2013-02-19 06:30:00,20.6,15.7,30.10,SSW,197,0.0,0.0,81,0.00,,CLR,0.00,VWS V14.00,2013-02-19 11:30:00,
2013-02-19 06:34:00,20.6,16.0,30.10,SSW,197,0.0,0.0,82,0.00,,CLR,0.00,VWS V14.00,2013-02-19 11:34:00,
2013-02-19 06:39:00,20.5,15.9,30.09,SSW,197,0.0,0.0,82,0.00,,CLR,0.00,VWS V14.00,2013-02-19 11:39:00,
2013-02-19 06:44:00,20.2,15.6,30.09,SSW,197,0.0,0.0,82,0.00,,CLR,0.00,VWS V14.00,2013-02-19 11:44:00,
2013-02-19 06:49:00,20.2,15.9,30.09,SSW,197,0.0,0.0,83,0.00,,CLR,0.00,VWS V14.00,2013-02-19 11:49:00,
2013-02-19 06:54:00,20.1,15.8,30.09,SSW,197,0.0,0.0,83,0.00,,CLR,0.00,VWS V14.00,2013-02-19 11:54:00,
2013-02-19 06:59:00,20.0,15.9,30.09,SSW,197,0.0,0.0,84,0.00,,CLR,0.00,VWS V14.00,2013-02-19 11:59:00,
2013-02-19 07:00:00,26.1,20.8,30.10,SSW,198,0.0,0.0,80,0.00,,CLR,0.00,VWS V14.00,2013-02-19 12:00:00,
2013-02-19 07:04:00,20.1,16.3,30.10,SSW,197,0.0,0.0,85,0.00,,CLR,0.00,VWS V14.00,2013-02-19 12:04:00,
2013-02-19 07:09:00,20.4,16.6,30.09,SSW,196,0.0,0.0,85,0.00,,CLR,0.00,VWS V14.00,2013-02-19 12:09:00,
2013-02-19 07:14:00,20.9,17.1,30.09,SSW,197,0.0,0.0,85,0.00,,CLR,0.00,VWS V14.00,2013-02-19 12:14:00,
2013-02-19 07:19:00,21.3,17.2,30.09,SSW,198,0.0,0.0,84,0.00,,CLR,0.00,VWS V14.00,2013-02-19 12:19:00,
2013-02-19 07:25:00,21.9,17.5,30.10,SSW,198,0.0,0.0,83,0.00,,CLR,0.00,VWS V14.00,2013-02-19 12:25:00,
2013-02-19 07:30:00,22.5,17.9,30.10,SSW,198,0.0,0.0,82,0.00,,CLR,0.00,VWS V14.00,2013-02-19 12:30:00,
2013-02-19 07:35:00,23.3,18.9,30.10,SSW,198,0.0,0.0,83,0.00,,CLR,0.00,VWS V14.00,2013-02-19 12:35:00,
2013-02-19 07:40:00,24.0,19.6,30.10,SSW,198,0.0,0.0,83,0.00,,CLR,0.00,VWS V14.00,2013-02-19 12:40:00,
2013-02-19 07:45:00,24.7,20.0,30.10,SSW,198,0.0,0.0,82,0.00,,CLR,0.00,VWS V14.00,2013-02-19 12:45:00,
2013-02-19 07:50:00,25.3,20.3,30.10,SSW,197,0.0,0.0,81,0.00,,CLR,0.00,VWS V14.00,2013-02-19 12:50:00,
2013-02-19 07:55:00,25.8,20.8,30.10,SSW,197,0.0,0.0,81,0.00,,CLR,0.00,VWS V14.00,2013-02-19 12:55:00,
2013-02-19 08:00:00,26.2,20.9,30.09,SSW,197,0.0,0.0,80,0.00,,CLR,0.00,VWS V14.00,2013-02-19 13:00:00,
2013-02-19 08:05:00,26.5,20.9,30.09,SSW,197,0.0,0.0,79,0.00,,CLR,0.00,VWS V14.00,2013-02-19 13:05:00,
2013-02-19 08:10:00,26.8,20.6,30.08,SSW,196,0.0,0.0,77,0.00,,CLR,0.00,VWS V14.00,2013-02-19 13:10:00,
2013-02-19 08:15:00,27.1,20.2,30.08,SSW,198,0.0,0.0,75,0.00,,CLR,0.00,VWS V14.00,2013-02-19 13:15:00,
2013-02-19 08:20:00,27.5,20.9,30.08,SSW,197,0.0,0.0,76,0.00,,CLR,0.00,VWS V14.00,2013-02-19 13:20:00,
2013-02-19 08:25:00,27.8,20.9,30.08,SSW,197,0.0,0.0,75,0.00,,CLR,0.00,VWS V14.00,2013-02-19 13:25:00,
2013-02-19 08:30:00,28.3,21.7,30.08,SSW,196,0.0,0.0,76,0.00,,CLR,0.00,VWS V14.00,2013-02-19 13:30:00,
2013-02-19 08:35:00,28.6,21.1,30.08,NNE,33,0.0,1.0,73,0.00,,CLR,0.00,VWS V14.00,2013-02-19 13:35:00,
2013-02-19 08:40:00,29.0,21.1,30.07,NNE,33,0.0,1.0,72,0.00,,CLR,0.00,VWS V14.00,2013-02-19 13:40:00,
2013-02-19 08:46:00,29.3,21.4,30.07,NNE,32,0.0,1.0,72,0.00,,CLR,0.00,VWS V14.00,2013-02-19 13:46:00,
2013-02-19 08:51:00,29.7,21.8,30.07,NNE,33,0.0,1.0,72,0.00,,CLR,0.00,VWS V14.00,2013-02-19 13:51:00,
2013-02-19 08:56:00,30.2,22.3,30.06,NNE,32,0.0,1.0,72,0.00,,CLR,0.00,VWS V14.00,2013-02-19 13:56:00,
2013-02-19 09:00:00,30.7,22.4,30.05,NNE,32,0.0,1.0,71,0.00,,CLR,0.00,VWS V14.00,2013-02-19 14:00:00,
2013-02-19 09:01:00,30.8,22.5,30.05,NNE,33,0.0,1.0,71,0.00,,CLR,0.00,VWS V14.00,2013-02-19 14:01:00,
2013-02-19 09:06:00,31.7,23.4,30.05,NNE,33,0.0,1.0,71,0.00,,CLR,0.00,VWS V14.00,2013-02-19 14:06:00,
2013-02-19 09:11:00,32.6,24.2,30.05,NNE,33,0.0,1.0,71,0.00,,CLR,0.00,VWS V14.00,2013-02-19 14:11:00,
2013-02-19 09:16:00,34.0,24.9,30.05,NNE,32,0.0,1.0,69,0.00,,CLR,0.00,VWS V14.00,2013-02-19 14:16:00,
2013-02-19 09:21:00,35.7,25.5,30.04,South,169,0.0,1.0,66,0.00,,CLR,0.00,VWS V14.00,2013-02-19 14:21:00,
2013-02-19 09:26:00,36.3,26.0,30.03,SE,124,1.0,4.0,66,0.00,,CLR,0.00,VWS V14.00,2013-02-19 14:26:00,
2013-02-19 09:30:00,36.4,25.8,30.03,ESE,123,1.0,4.0,65,0.00,,CLR,0.00,VWS V14.00,2013-02-19 14:30:00,
2013-02-19 09:31:00,36.6,26.3,30.03,ESE,123,0.0,1.0,66,0.00,,CLR,0.00,VWS V14.00,2013-02-19 14:31:00,
2013-02-19 09:36:00,37.3,26.3,30.03,North,1,0.0,2.0,64,0.00,,CLR,0.00,VWS V14.00,2013-02-19 14:36:00,
2013-02-19 09:41:00,37.7,27.0,30.02,SE,143,1.0,2.0,65,0.00,,CLR,0.00,VWS V14.00,2013-02-19 14:41:00,
2013-02-19 09:46:00,37.9,27.2,30.03,SE,139,0.0,2.0,65,0.00,,CLR,0.00,VWS V14.00,2013-02-19 14:46:00,
2013-02-19 09:51:00,38.5,27.8,30.03,SSE,163,3.0,5.0,65,0.00,,CLR,0.00,VWS V14.00,2013-02-19 14:51:00,
2013-02-19 09:56:00,39.5,28.4,30.02,SSE,158,3.0,5.0,64,0.00,,CLR,0.00,VWS V14.00,2013-02-19 14:56:00,
2013-02-19 10:00:00,40.0,28.4,30.02,SSW,203,2.0,5.0,63,0.00,,CLR,0.00,VWS V14.00,2013-02-19 15:00:00,
2013-02-19 10:02:00,40.3,28.3,30.02,SE,143,4.0,4.0,62,0.00,,CLR,0.00,VWS V14.00,2013-02-19 15:02:00,
2013-02-19 10:07:00,40.7,27.9,30.01,South,183,3.0,5.0,60,0.00,,CLR,0.00,VWS V14.00,2013-02-19 15:07:00,
2013-02-19 10:12:00,41.4,29.0,30.01,SSE,165,5.0,5.0,61,0.00,,CLR,0.00,VWS V14.00,2013-02-19 15:12:00,
2013-02-19 10:17:00,42.5,29.6,30.00,SW,219,7.0,10.0,60,0.00,,CLR,0.00,VWS V14.00,2013-02-19 15:17:00,
2013-02-19 10:22:00,42.9,28.7,30.01,South,187,3.0,10.0,57,0.00,,CLR,0.00,VWS V14.00,2013-02-19 15:22:00,
2013-02-19 10:27:00,43.0,28.4,30.02,SSW,193,5.0,11.0,56,0.00,,CLR,0.00,VWS V14.00,2013-02-19 15:27:00,
2013-02-19 10:30:00,43.0,28.4,30.02,SSW,210,8.0,12.0,56,0.00,,CLR,0.00,VWS V14.00,2013-02-19 15:30:00,
2013-02-19 10:32:00,43.0,28.8,30.02,SSW,201,5.0,8.0,57,0.00,,CLR,0.00,VWS V14.00,2013-02-19 15:32:00,
2013-02-19 10:37:00,43.5,28.9,30.00,SSW,192,4.0,10.0,56,0.00,,CLR,0.00,VWS V14.00,2013-02-19 15:37:00,
2013-02-19 10:42:00,44.2,29.5,30.00,SSW,194,7.0,10.0,56,0.00,,CLR,0.00,VWS V14.00,2013-02-19 15:42:00,
2013-02-19 10:47:00,44.7,29.5,30.00,WSW,246,3.0,10.0,55,0.00,,CLR,0.00,VWS V14.00,2013-02-19 15:47:00,
2013-02-19 10:52:00,45.2,30.9,30.00,SSW,212,4.0,11.0,57,0.00,,CLR,0.00,VWS V14.00,2013-02-19 15:52:00,
2013-02-19 10:57:00,45.7,30.0,30.00,SSW,193,6.0,14.0,54,0.00,,CLR,0.00,VWS V14.00,2013-02-19 15:57:00,
2013-02-19 11:00:00,45.9,29.8,30.00,South,179,8.0,14.0,53,0.00,,CLR,0.00,VWS V14.00,2013-02-19 16:00:00,
2013-02-19 11:02:00,46.4,30.7,29.99,SSE,158,9.0,13.0,54,0.00,,FEW120,0.00,VWS V14.00,2013-02-19 16:02:00,
2013-02-19 11:07:00,46.7,30.0,29.99,SSW,198,2.0,13.0,52,0.00,,FEW120,0.00,VWS V14.00,2013-02-19 16:07:00,
2013-02-19 11:12:00,46.8,30.6,29.98,South,191,11.0,13.0,53,0.00,,FEW120,0.00,VWS V14.00,2013-02-19 16:12:00,
2013-02-19 11:17:00,47.0,30.8,29.98,South,173,7.0,13.0,53,0.00,,FEW120,0.00,VWS V14.00,2013-02-19 16:17:00,
2013-02-19 11:22:00,47.2,30.5,29.98,SSW,194,8.0,14.0,52,0.00,,FEW120,0.00,VWS V14.00,2013-02-19 16:22:00,
2013-02-19 11:28:00,47.2,30.5,29.98,SSE,155,11.0,14.0,52,0.00,,FEW120,0.00,VWS V14.00,2013-02-19 16:28:00,
2013-02-19 11:30:00,47.1,30.4,29.98,SSW,198,7.0,14.0,52,0.00,,CLR,0.00,VWS V14.00,2013-02-19 16:30:00,
2013-02-19 11:33:00,47.1,30.9,29.98,SW,219,13.0,18.0,53,0.00,,FEW120,0.00,VWS V14.00,2013-02-19 16:33:00,
2013-02-19 11:38:00,46.9,30.7,29.98,SW,219,7.0,18.0,53,0.00,,FEW120,0.00,VWS V14.00,2013-02-19 16:38:00,
2013-02-19 11:43:00,46.7,30.5,29.98,South,172,15.0,18.0,53,0.00,,FEW120,0.00,VWS V14.00,2013-02-19 16:43:00,
2013-02-19 11:48:00,45.8,31.9,29.99,SW,219,4.0,23.0,58,0.00,,FEW120,0.00,VWS V14.00,2013-02-19 16:48:00,
2013-02-19 11:53:00,44.3,33.7,29.99,West,270,6.0,23.0,66,0.00,,FEW120,0.00,VWS V14.00,2013-02-19 16:53:00,
2013-02-19 11:58:00,43.3,33.8,29.98,SSW,195,9.0,23.0,69,0.00,,FEW120,0.00,VWS V14.00,2013-02-19 16:58:00,
2013-02-19 12:00:00,43.1,34.0,29.98,SSW,197,6.0,23.0,70,0.00,,CLR,0.00,VWS V14.00,2013-02-19 17:00:00,
2013-02-19 12:03:00,42.6,34.2,29.98,SSW,205,4.0,17.0,72,0.01,,-RA,0.01,VWS V14.00,2013-02-19 17:03:00,
2013-02-19 12:08:00,42.3,34.3,29.97,SW,217,9.0,17.0,73,0.01,,-RA,0.01,VWS V14.00,2013-02-19 17:08:00,
2013-02-19 12:13:00,41.9,34.6,29.97,SSW,192,8.0,17.0,75,0.01,,-RA,0.01,VWS V14.00,2013-02-19 17:13:00,
2013-02-19 12:18:00,41.6,34.6,29.96,SSW,201,2.0,17.0,76,0.02,,-RA,0.02,VWS V14.00,2013-02-19 17:18:00,
2013-02-19 12:23:00,41.2,35.2,29.95,SSW,207,5.0,17.0,79,0.02,,-RA,0.02,VWS V14.00,2013-02-19 17:23:00,
2013-02-19 12:28:00,41.0,35.0,29.94,SSW,193,5.0,17.0,79,0.03,,-RA,0.03,VWS V14.00,2013-02-19 17:28:00,
2013-02-19 12:30:00,41.0,35.3,29.95,West,266,6.0,17.0,80,0.03,,CLR,0.03,VWS V14.00,2013-02-19 17:30:00,
2013-02-19 12:33:00,41.0,35.3,29.94,South,190,6.0,6.0,80,0.03,,-RA,0.03,VWS V14.00,2013-02-19 17:33:00,
2013-02-19 12:38:00,40.9,35.5,29.94,SSW,194,4.0,6.0,81,0.04,,-RA,0.04,VWS V14.00,2013-02-19 17:38:00,
2013-02-19 12:43:00,40.8,36.0,29.93,SSW,202,4.0,6.0,83,0.04,,-RA,0.04,VWS V14.00,2013-02-19 17:43:00,
2013-02-19 12:48:00,40.9,36.1,29.93,SSW,208,5.0,6.0,83,0.05,,-RA,0.05,VWS V14.00,2013-02-19 17:48:00,
2013-02-19 12:54:00,41.0,36.5,29.93,SW,219,3.0,8.0,84,0.05,,-RA,0.05,VWS V14.00,2013-02-19 17:54:00,
2013-02-19 12:59:00,41.1,36.6,29.91,South,172,2.0,8.0,84,0.06,,-RA,0.06,VWS V14.00,2013-02-19 17:59:00,
2013-02-19 13:00:00,41.1,36.6,29.91,SSW,195,6.0,8.0,84,0.06,,CLR,0.06,VWS V14.00,2013-02-19 18:00:00,
2013-02-19 13:04:00,41.1,36.6,29.91,SSW,197,5.0,6.0,84,0.06,,-RA,0.06,VWS V14.00,2013-02-19 18:04:00,
2013-02-19 13:09:00,41.1,36.6,29.91,South,190,7.0,8.0,84,0.06,,-RA,0.06,VWS V14.00,2013-02-19 18:09:00,
2013-02-19 13:14:00,41.1,36.9,29.91,South,183,4.0,8.0,85,0.07,,-RA,0.07,VWS V14.00,2013-02-19 18:14:00,
2013-02-19 13:19:00,41.1,36.9,29.90,SW,217,4.0,8.0,85,0.08,,-RA,0.08,VWS V14.00,2013-02-19 18:19:00,
2013-02-19 13:24:00,41.1,37.2,29.90,South,190,3.0,8.0,86,0.08,,-RA,0.08,VWS V14.00,2013-02-19 18:24:00,
2013-02-19 13:29:00,41.0,37.1,29.89,SSW,195,4.0,8.0,86,0.08,,-RA,0.08,VWS V14.00,2013-02-19 18:29:00,
2013-02-19 13:30:00,41.1,37.2,29.90,SSW,193,3.0,8.0,86,0.08,,CLR,0.08,VWS V14.00,2013-02-19 18:30:00,
2013-02-19 13:34:00,41.0,37.4,29.89,SSW,208,4.0,6.0,87,0.06,,-RA,0.09,VWS V14.00,2013-02-19 18:34:00,
2013-02-19 13:39:00,41.0,37.4,29.89,SSW,196,2.0,6.0,87,0.06,,-RA,0.09,VWS V14.00,2013-02-19 18:39:00,
2013-02-19 13:44:00,41.0,37.4,29.89,SSW,203,1.0,6.0,87,0.07,,-RA,0.10,VWS V14.00,2013-02-19 18:44:00,
2013-02-19 13:49:00,41.0,37.4,29.88,SSW,200,2.0,6.0,87,0.07,,-RA,0.10,VWS V14.00,2013-02-19 18:49:00,
2013-02-19 13:54:00,41.0,37.7,29.88,SSW,210,1.0,6.0,88,0.07,,-RA,0.10,VWS V14.00,2013-02-19 18:54:00,
2013-02-19 13:59:00,41.1,37.8,29.88,South,176,2.0,6.0,88,0.08,,-RA,0.11,VWS V14.00,2013-02-19 18:59:00,
2013-02-19 14:00:00,41.1,37.8,29.88,SSE,158,2.0,6.0,88,0.08,,CLR,0.11,VWS V14.00,2013-02-19 19:00:00,
2013-02-19 14:04:00,41.2,37.9,29.87,South,186,2.0,5.0,88,0.05,,-RA,0.11,VWS V14.00,2013-02-19 19:04:00,
2013-02-19 14:09:00,41.2,37.9,29.87,SSW,201,1.0,5.0,88,0.05,,-RA,0.11,VWS V14.00,2013-02-19 19:09:00,
2013-02-19 14:14:00,41.3,38.3,29.86,SSW,195,2.0,5.0,89,0.05,,-RA,0.11,VWS V14.00,2013-02-19 19:14:00,
2013-02-19 14:19:00,41.4,38.4,29.86,SSE,153,3.0,6.0,89,0.05,,-RA,0.11,VWS V14.00,2013-02-19 19:19:00,
2013-02-19 14:25:00,41.6,38.6,29.85,SSE,158,3.0,6.0,89,0.05,,-RA,0.11,VWS V14.00,2013-02-19 19:25:00,
2013-02-19 14:30:00,41.7,38.7,29.84,SSW,198,5.0,6.0,89,0.04,,-RA,0.12,VWS V14.00,2013-02-19 19:30:00,
2013-02-19 14:35:00,41.9,38.9,29.84,South,181,5.0,7.0,89,0.04,,-RA,0.12,VWS V14.00,2013-02-19 19:35:00,
2013-02-19 14:40:00,42.1,39.1,29.83,SSE,165,5.0,8.0,89,0.04,,-RA,0.12,VWS V14.00,2013-02-19 19:40:00,
2013-02-19 14:45:00,42.2,39.2,29.82,South,188,7.0,8.0,89,0.04,,-RA,0.12,VWS V14.00,2013-02-19 19:45:00,
2013-02-19 14:50:00,42.3,39.6,29.82,SSW,211,4.0,8.0,90,0.05,,-RA,0.13,VWS V14.00,2013-02-19 19:50:00,
2013-02-19 14:55:00,42.3,39.6,29.81,SSW,196,6.0,8.0,90,0.05,,-RA,0.13,VWS V14.00,2013-02-19 19:55:00,
2013-02-19 15:00:00,42.3,39.6,29.81,South,186,4.0,7.0,90,0.02,,-RA,0.13,VWS V14.00,2013-02-19 20:00:00,
2013-02-19 15:05:00,42.4,40.0,29.80,SSE,162,5.0,7.0,91,0.03,,-RA,0.14,VWS V14.00,2013-02-19 20:05:00,
2013-02-19 15:10:00,42.4,40.0,29.80,South,172,5.0,8.0,91,0.03,,-RA,0.14,VWS V14.00,2013-02-19 20:10:00,
2013-02-19 15:15:00,42.4,40.0,29.80,SSE,159,4.0,8.0,91,0.04,,-RA,0.15,VWS V14.00,2013-02-19 20:15:00,
2013-02-19 15:20:00,42.6,40.4,29.80,SSW,200,4.0,8.0,92,0.04,,-RA,0.15,VWS V14.00,2013-02-19 20:20:00,
2013-02-19 15:25:00,42.7,40.5,29.80,SSW,207,3.0,8.0,92,0.04,,-RA,0.15,VWS V14.00,2013-02-19 20:25:00,
2013-02-19 15:30:00,42.7,40.5,29.80,SW,214,2.0,8.0,92,0.05,,CLR,0.16,VWS V14.00,2013-02-19 20:30:00,
2013-02-19 15:31:00,42.8,40.6,29.79,SSW,208,3.0,5.0,92,0.04,,-RA,0.16,VWS V14.00,2013-02-19 20:31:00,
2013-02-19 15:36:00,43.0,40.8,29.79,SSW,200,3.0,8.0,92,0.04,,-RA,0.16,VWS V14.00,2013-02-19 20:36:00,
2013-02-19 15:41:00,43.1,40.7,29.79,SSW,205,6.0,11.0,91,0.04,,-RA,0.16,VWS V14.00,2013-02-19 20:41:00,
2013-02-19 15:46:00,43.1,40.7,29.78,SSW,212,4.0,11.0,91,0.04,,-RA,0.16,VWS V14.00,2013-02-19 20:46:00,
2013-02-19 15:51:00,43.1,40.7,29.78,WSW,238,3.0,11.0,91,0.04,,-RA,0.16,VWS V14.00,2013-02-19 20:51:00,
2013-02-19 15:56:00,43.2,41.0,29.78,SSW,205,4.0,11.0,92,0.04,,-RA,0.16,VWS V14.00,2013-02-19 20:56:00,
2013-02-19 16:00:00,43.1,40.7,29.77,SSW,204,6.0,11.0,91,0.05,,CLR,0.17,VWS V14.00,2013-02-19 21:00:00,
2013-02-19 16:01:00,43.2,41.0,29.78,SSE,166,3.0,7.0,92,0.04,,-RA,0.17,VWS V14.00,2013-02-19 21:01:00,
2013-02-19 16:06:00,43.2,40.8,29.77,SW,219,0.0,7.0,91,0.04,,-RA,0.17,VWS V14.00,2013-02-19 21:06:00,
2013-02-19 16:11:00,43.2,41.0,29.77,SSE,159,3.0,7.0,92,0.04,,-RA,0.17,VWS V14.00,2013-02-19 21:11:00,
2013-02-19 16:16:00,43.2,41.0,29.77,South,172,5.0,7.0,92,0.04,,-RA,0.17,VWS V14.00,2013-02-19 21:16:00,
2013-02-19 16:21:00,43.4,41.2,29.77,SSW,205,3.0,8.0,92,0.05,,-RA,0.18,VWS V14.00,2013-02-19 21:21:00,
2013-02-19 16:26:00,43.4,41.2,29.77,SSW,200,3.0,8.0,92,0.05,,-RA,0.18,VWS V14.00,2013-02-19 21:26:00,
2013-02-19 16:30:00,43.4,41.2,29.77,WSW,246,2.0,8.0,92,0.05,,CLR,0.18,VWS V14.00,2013-02-19 21:30:00,
2013-02-19 16:31:00,43.4,41.2,29.77,SSW,201,2.0,4.0,92,0.02,,-RA,0.18,VWS V14.00,2013-02-19 21:31:00,
2013-02-19 16:36:00,43.4,41.0,29.76,SSW,212,3.0,5.0,91,0.02,,-RA,0.18,VWS V14.00,2013-02-19 21:36:00,
2013-02-19 16:41:00,43.3,41.1,29.76,SSW,207,2.0,5.0,92,0.02,,-RA,0.18,VWS V14.00,2013-02-19 21:41:00,
2013-02-19 16:46:00,43.4,41.2,29.76,SSW,192,2.0,6.0,92,0.03,,-RA,0.19,VWS V14.00,2013-02-19 21:46:00,
2013-02-19 16:52:00,43.4,41.2,29.76,South,184,1.0,6.0,92,0.03,,-RA,0.19,VWS V14.00,2013-02-19 21:52:00,
2013-02-19 16:57:00,43.4,41.2,29.76,SW,217,2.0,7.0,92,0.03,,-RA,0.19,VWS V14.00,2013-02-19 21:57:00,
2013-02-19 17:00:00,43.4,41.2,29.76,SW,231,2.0,7.0,92,0.04,,CLR,0.20,VWS V14.00,2013-02-19 22:00:00,
2013-02-19 17:02:00,43.4,41.2,29.76,SSW,203,3.0,3.0,92,0.03,,-RA,0.20,VWS V14.00,2013-02-19 22:02:00,
2013-02-19 17:07:00,43.5,41.3,29.76,WSW,248,1.0,6.0,92,0.03,,-RA,0.20,VWS V14.00,2013-02-19 22:07:00,
2013-02-19 17:12:00,43.5,41.3,29.76,SSW,201,1.0,7.0,92,0.04,,-RA,0.21,VWS V14.00,2013-02-19 22:12:00,
2013-02-19 17:17:00,43.5,41.3,29.75,SSW,207,2.0,7.0,92,0.04,,-RA,0.21,VWS V14.00,2013-02-19 22:17:00,
2013-02-19 17:22:00,43.4,41.2,29.76,SSW,201,1.0,7.0,92,0.05,,-RA,0.22,VWS V14.00,2013-02-19 22:22:00,
2013-02-19 17:27:00,43.4,41.2,29.76,SSW,193,1.0,7.0,92,0.05,,-RA,0.22,VWS V14.00,2013-02-19 22:27:00,
2013-02-19 17:30:00,43.4,41.2,29.76,SSW,203,3.0,7.0,92,0.05,,CLR,0.22,VWS V14.00,2013-02-19 22:30:00,
2013-02-19 17:32:00,43.4,41.2,29.75,SSW,212,2.0,4.0,92,0.05,,-RA,0.23,VWS V14.00,2013-02-19 22:32:00,
2013-02-19 17:37:00,43.3,41.4,29.75,SSW,200,2.0,4.0,93,0.05,,-RA,0.23,VWS V14.00,2013-02-19 22:37:00,
2013-02-19 17:42:00,43.2,41.0,29.74,South,172,5.0,5.0,92,0.06,,-RA,0.24,VWS V14.00,2013-02-19 22:42:00,
2013-02-19 17:47:00,43.2,41.0,29.75,SSW,195,4.0,5.0,92,0.06,,-RA,0.24,VWS V14.00,2013-02-19 22:47:00,
2013-02-19 17:52:00,43.2,41.3,29.75,SSW,194,5.0,7.0,93,0.06,,-RA,0.24,VWS V14.00,2013-02-19 22:52:00,
2013-02-19 17:57:00,43.3,41.1,29.74,South,180,5.0,7.0,92,0.06,,-RA,0.24,VWS V14.00,2013-02-19 22:57:00,
2013-02-19 18:00:00,43.4,41.5,29.74,SSW,204,4.0,7.0,93,0.06,,CLR,0.24,VWS V14.00,2013-02-19 23:00:00,
2013-02-19 18:02:00,43.4,41.2,29.74,SSW,203,3.0,5.0,92,0.04,,-RA,0.24,VWS V14.00,2013-02-19 23:02:00,
2013-02-19 18:08:00,43.4,41.2,29.74,SSW,198,3.0,5.0,92,0.04,,-RA,0.24,VWS V14.00,2013-02-19 23:08:00,
2013-02-19 18:13:00,43.3,41.1,29.74,WSW,248,2.0,5.0,92,0.04,,-RA,0.24,VWS V14.00,2013-02-19 23:13:00,
2013-02-19 18:18:00,43.2,41.0,29.75,West,266,1.0,5.0,92,0.04,,-RA,0.24,VWS V14.00,2013-02-19 23:18:00,
2013-02-19 18:23:00,43.3,41.4,29.74,SSW,205,1.0,5.0,93,0.04,,-RA,0.24,VWS V14.00,2013-02-19 23:23:00,
2013-02-19 18:28:00,43.2,41.3,29.74,SSW,203,1.0,5.0,93,0.04,,-RA,0.24,VWS V14.00,2013-02-19 23:28:00,
2013-02-19 18:30:00,43.2,41.3,29.74,WSW,250,3.0,5.0,93,0.04,,CLR,0.24,VWS V14.00,2013-02-19 23:30:00,
2013-02-19 18:33:00,43.3,41.4,29.74,SW,226,4.0,5.0,93,0.02,,-RA,0.24,VWS V14.00,2013-02-19 23:33:00,
2013-02-19 18:38:00,43.5,41.6,29.74,West,280,2.0,7.0,93,0.02,,-RA,0.24,VWS V14.00,2013-02-19 23:38:00,
2013-02-19 18:43:00,43.4,41.5,29.74,SSW,197,2.0,7.0,93,0.02,,OVC013,0.24,VWS V14.00,2013-02-19 23:43:00,
2013-02-19 18:48:00,43.4,41.2,29.74,SW,215,1.0,7.0,92,0.02,,OVC013,0.24,VWS V14.00,2013-02-19 23:48:00,
2013-02-19 18:53:00,43.4,41.2,29.74,SW,236,2.0,7.0,92,0.02,,OVC013,0.24,VWS V14.00,2013-02-19 23:53:00,
2013-02-19 18:58:00,43.5,41.3,29.74,SSW,205,1.0,7.0,92,0.02,,OVC013,0.24,VWS V14.00,2013-02-19 23:58:00,
2013-02-19 19:00:00,43.5,41.3,29.74,SE,133,3.0,7.0,92,0.02,,CLR,0.24,VWS V14.00,2013-02-20 00:00:00,
2013-02-19 19:03:00,43.5,41.3,29.74,WSW,239,0.0,5.0,92,0.00,,OVC009,0.24,VWS V14.00,2013-02-20 00:03:00,
2013-02-19 19:08:00,43.7,41.5,29.74,West,266,4.0,7.0,92,0.00,,OVC009,0.24,VWS V14.00,2013-02-20 00:08:00,
2013-02-19 19:13:00,43.8,41.6,29.74,South,188,2.0,7.0,92,0.00,,OVC009,0.24,VWS V14.00,2013-02-20 00:13:00,
2013-02-19 19:18:00,44.0,41.5,29.74,WSW,255,3.0,12.0,91,0.00,,OVC009,0.24,VWS V14.00,2013-02-20 00:18:00,
2013-02-19 19:23:00,44.1,41.4,29.74,West,270,3.0,12.0,90,0.00,,OVC009,0.24,VWS V14.00,2013-02-20 00:23:00,
2013-02-19 19:28:00,44.2,41.5,29.74,West,277,14.0,14.0,90,0.00,,OVC009,0.24,VWS V14.00,2013-02-20 00:28:00,
2013-02-19 19:30:00,44.2,41.5,29.74,SSW,208,3.0,14.0,90,0.00,,CLR,0.24,VWS V14.00,2013-02-20 00:30:00,
2013-02-19 19:33:00,44.2,41.5,29.75,West,269,5.0,11.0,90,0.00,,OVC009,0.24,VWS V14.00,2013-02-20 00:33:00,
2013-02-19 19:39:00,44.1,41.4,29.74,West,264,2.0,15.0,90,0.01,,OVC009,0.25,VWS V14.00,2013-02-20 00:39:00,
2013-02-19 19:44:00,43.8,40.8,29.74,WNW,298,5.0,15.0,89,0.01,,OVC009,0.25,VWS V14.00,2013-02-20 00:44:00,
2013-02-19 19:49:00,43.7,40.7,29.74,West,270,3.0,15.0,89,0.01,,OVC009,0.25,VWS V14.00,2013-02-20 00:49:00,
2013-02-19 19:54:00,43.5,40.2,29.74,WSW,257,3.0,15.0,88,0.01,,-RA,0.25,VWS V14.00,2013-02-20 00:54:00,
2013-02-19 19:59:00,43.5,39.9,29.74,WSW,249,5.0,15.0,87,0.01,,-RA,0.25,VWS V14.00,2013-02-20 00:59:00,
2013-02-19 20:00:00,43.5,39.9,29.74,WNW,294,4.0,15.0,87,0.01,,CLR,0.25,VWS V14.00,2013-02-20 01:00:00,
2013-02-19 20:04:00,43.2,39.6,29.73,WSW,253,2.0,9.0,87,0.01,,-RA,0.25,VWS V14.00,2013-02-20 01:04:00,
2013-02-19 20:09:00,43.2,39.6,29.73,WSW,250,3.0,10.0,87,0.01,,-RA,0.25,VWS V14.00,2013-02-20 01:09:00,
2013-02-19 20:14:00,43.1,39.5,29.73,WSW,246,4.0,10.0,87,0.01,,OVC090,0.25,VWS V14.00,2013-02-20 01:14:00,
2013-02-19 20:19:00,42.9,39.3,29.74,WSW,245,5.0,11.0,87,0.01,,OVC090,0.25,VWS V14.00,2013-02-20 01:19:00,
2013-02-19 20:24:00,42.9,39.0,29.74,WSW,246,5.0,13.0,86,0.01,,OVC090,0.25,VWS V14.00,2013-02-20 01:24:00,
2013-02-19 20:29:00,42.7,38.8,29.74,West,274,6.0,13.0,86,0.01,,OVC090,0.25,VWS V14.00,2013-02-20 01:29:00,
2013-02-19 20:30:00,42.7,38.8,29.74,WNW,293,7.0,13.0,86,0.01,,CLR,0.25,VWS V14.00,2013-02-20 01:30:00,
2013-02-19 20:34:00,42.7,38.5,29.74,WNW,290,3.0,11.0,85,0.01,,OVC090,0.25,VWS V14.00,2013-02-20 01:34:00,
2013-02-19 20:39:00,42.6,38.4,29.74,West,274,6.0,11.0,85,0.01,,OVC090,0.25,VWS V14.00,2013-02-20 01:39:00,
2013-02-19 20:44:00,42.5,38.0,29.74,WSW,253,2.0,11.0,84,0.01,,OVC090,0.25,VWS V14.00,2013-02-20 01:44:00,
2013-02-19 20:49:00,42.3,37.8,29.75,NW,315,2.0,12.0,84,0.01,,OVC090,0.25,VWS V14.00,2013-02-20 01:49:00,
2013-02-19 20:54:00,42.2,37.7,29.75,WNW,300,9.0,12.0,84,0.01,,OVC090,0.25,VWS V14.00,2013-02-20 01:54:00,
2013-02-19 21:00:00,42.1,37.3,29.75,WNW,297,4.0,5.0,83,0.00,,OVC090,0.25,VWS V14.00,2013-02-20 02:00:00,
2013-02-19 21:05:00,41.9,37.1,29.75,NW,309,7.0,9.0,83,0.00,,BKN110,0.25,VWS V14.00,2013-02-20 02:05:00,
2013-02-19 21:10:00,41.6,36.8,29.75,WNW,293,4.0,9.0,83,0.00,,BKN110,0.25,VWS V14.00,2013-02-20 02:10:00,
2013-02-19 21:15:00,41.6,36.5,29.76,NW,309,4.0,12.0,82,0.00,,BKN110,0.25,VWS V14.00,2013-02-20 02:15:00,
2013-02-19 21:20:00,41.5,36.4,29.76,WNW,285,3.0,12.0,82,0.00,,BKN110,0.25,VWS V14.00,2013-02-20 02:20:00,
2013-02-19 21:25:00,41.3,35.9,29.76,West,259,3.0,12.0,81,0.00,,BKN110,0.25,VWS V14.00,2013-02-20 02:25:00,
2013-02-19 21:30:00,41.1,35.7,29.76,West,274,5.0,7.0,81,0.00,,BKN110,0.25,VWS V14.00,2013-02-20 02:30:00,
2013-02-19 21:35:00,41.0,35.3,29.76,WNW,291,7.0,9.0,80,0.00,,BKN110,0.25,VWS V14.00,2013-02-20 02:35:00,
2013-02-19 21:40:00,41.0,34.7,29.76,WNW,300,8.0,13.0,78,0.00,,BKN110,0.25,VWS V14.00,2013-02-20 02:40:00,
2013-02-19 21:45:00,40.7,34.4,29.76,NNW,329,6.0,13.0,78,0.00,,BKN110,0.25,VWS V14.00,2013-02-20 02:45:00,
2013-02-19 21:50:00,40.6,34.0,29.76,NW,321,7.0,13.0,77,0.00,,BKN110,0.25,VWS V14.00,2013-02-20 02:50:00,
2013-02-19 21:55:00,40.6,33.6,29.76,NW,309,5.0,13.0,76,0.00,,BKN110,0.25,VWS V14.00,2013-02-20 02:55:00,
2013-02-19 22:00:00,40.4,33.5,29.77,WNW,298,4.0,6.0,76,0.00,,BKN110,0.25,VWS V14.00,2013-02-20 03:00:00,
2013-02-19 22:05:00,40.2,33.2,29.77,WNW,290,4.0,13.0,76,0.00,,CLR,0.25,VWS V14.00,2013-02-20 03:05:00,
2013-02-19 22:10:00,40.0,33.1,29.77,West,279,3.0,13.0,76,0.00,,CLR,0.25,VWS V14.00,2013-02-20 03:10:00,
2013-02-19 22:15:00,39.7,32.8,29.78,NNW,328,9.0,13.0,76,0.00,,CLR,0.25,VWS V14.00,2013-02-20 03:15:00,
2013-02-19 22:20:00,39.6,32.3,29.78,NW,310,8.0,13.0,75,0.00,,CLR,0.25,VWS V14.00,2013-02-20 03:20:00,
2013-02-19 22:26:00,39.3,31.7,29.78,NW,310,10.0,16.0,74,0.00,,CLR,0.25,VWS V14.00,2013-02-20 03:26:00,
2013-02-19 22:30:00,39.2,31.3,29.78,West,259,4.0,16.0,73,0.00,,CLR,0.25,VWS V14.00,2013-02-20 03:30:00,
2013-02-19 22:31:00,39.2,31.3,29.78,NW,312,8.0,15.0,73,0.00,,CLR,0.25,VWS V14.00,2013-02-20 03:31:00,
2013-02-19 22:36:00,39.0,30.8,29.78,WNW,288,4.0,15.0,72,0.00,,CLR,0.25,VWS V14.00,2013-02-20 03:36:00,
2013-02-19 22:41:00,38.7,30.1,29.79,NNW,328,2.0,15.0,71,0.00,,CLR,0.25,VWS V14.00,2013-02-20 03:41:00,
2013-02-19 22:46:00,38.5,29.9,29.79,WNW,297,2.0,15.0,71,0.00,,CLR,0.25,VWS V14.00,2013-02-20 03:46:00,
2013-02-19 22:51:00,38.2,29.6,29.79,WNW,293,3.0,15.0,71,0.00,,CLR,0.25,VWS V14.00,2013-02-20 03:51:00,
2013-02-19 22:56:00,38.0,29.5,29.79,WNW,284,3.0,15.0,71,0.00,,CLR,0.25,VWS V14.00,2013-02-20 03:56:00,
2013-02-19 23:00:00,37.9,29.4,29.78,NW,310,1.0,15.0,71,0.00,,CLR,0.25,VWS V14.00,2013-02-20 04:00:00,
2013-02-19 23:01:00,37.9,29.4,29.79,West,259,1.0,5.0,71,0.00,,FEW046,0.25,VWS V14.00,2013-02-20 04:01:00,
2013-02-19 23:06:00,37.7,29.2,29.79,WNW,284,5.0,7.0,71,0.00,,FEW046,0.25,VWS V14.00,2013-02-20 04:06:00,
2013-02-19 23:11:00,37.5,29.0,29.79,WNW,287,6.0,9.0,71,0.00,,FEW046,0.25,VWS V14.00,2013-02-20 04:11:00,
2013-02-19 23:16:00,37.4,28.9,29.79,WNW,300,1.0,9.0,71,0.00,,FEW046,0.25,VWS V14.00,2013-02-20 04:16:00,
2013-02-19 23:21:00,37.3,28.8,29.79,WNW,284,2.0,9.0,71,0.00,,FEW046,0.25,VWS V14.00,2013-02-20 04:21:00,
2013-02-19 23:26:00,37.2,28.7,29.79,WNW,294,2.0,9.0,71,0.00,,FEW046,0.25,VWS V14.00,2013-02-20 04:26:00,
2013-02-19 23:30:00,37.0,28.5,29.79,West,277,1.0,9.0,71,0.00,,CLR,0.25,VWS V14.00,2013-02-20 04:30:00,
2013-02-19 23:31:00,36.9,28.0,29.79,WNW,297,2.0,8.0,70,0.00,,FEW046,0.25,VWS V14.00,2013-02-20 04:31:00,
2013-02-19 23:36:00,36.9,28.0,29.79,West,274,0.0,8.0,70,0.00,,FEW046,0.25,VWS V14.00,2013-02-20 04:36:00,
2013-02-19 23:41:00,36.5,28.0,29.80,NNW,328,1.0,8.0,71,0.00,,FEW046,0.25,VWS V14.00,2013-02-20 04:41:00,
2013-02-19 23:47:00,36.3,27.8,29.79,WNW,297,2.0,8.0,71,0.00,,FEW046,0.25,VWS V14.00,2013-02-20 04:47:00,
2013-02-19 23:52:00,36.4,27.6,29.79,WNW,298,3.0,8.0,70,0.00,,FEW046,0.25,VWS V14.00,2013-02-20 04:52:00,
2013-02-19 23:57:00,36.3,27.5,29.80,NW,307,2.0,8.0,70,0.00,,FEW046,0.25,VWS V14.00,2013-02-20 04:57:00,